Erikoussa — SVGV — position and weather

sailwx.info

Track history (hours):
 
Tides and Currents Weather Stations Pressure Air Temp Water Temp Dewpoint Dewpoint Depression Visibility Wind Speed Wind Dir Waves Ship Positions

Erikoussa

Last reported at 2017-Nov-18 12:32 UTC. Time now 2017-Nov-24 05:34 UTC.
Position N 35°59' W 005°33'.

Length 229 m; draft 12.3 m.

Type: Tanker. MMSI: 237928000.

Date/timePositionNaut miles runAvg speedWind from/ knotsBaromVisibWave heightAir tempDewpointWater temp
2017-Nov-18 12:32N 35°59' W 005°33'013.2
2017-Nov-18 12:30N 35°59' W 005°32'812.3
2017-Nov-18 11:53N 36°02' W 005°23'411.8
2017-Nov-18 11:30N 36°04' W 005°19'3 5.4
2017-Nov-18 11:00N 36°07' W 005°18'  
2017-Nov-14 12:13N 36°04' W 005°11'315.6
2017-Nov-14 12:00N 36°05' W 005°15'711.5
2017-Nov-14 11:22N 36°07' W 005°23'2 0.3
2017-Nov-14 04:36N 36°09' W 005°23'0 0.1
2017-Nov-14 04:24N 36°09' W 005°23'0 0.0
2017-Nov-14 03:54N 36°09' W 005°23'0 0.0
2017-Nov-14 03:30N 36°09' W 005°23'0 0.0
2017-Nov-14 02:42N 36°09' W 005°23'0 0.1
2017-Nov-14 02:24N 36°09' W 005°23'0 0.1
2017-Nov-14 02:00N 36°09' W 005°23'0 0.0
2017-Nov-14 01:06N 36°09' W 005°23'0 0.2
2017-Nov-14 01:00N 36°09' W 005°23'1 2.6
2017-Nov-14 00:30N 36°07' W 005°23'1 1.7
2017-Nov-14 00:00N 36°06' W 005°22'1 1.8
2017-Nov-13 23:30N 36°06' W 005°22'4 7.8
2017-Nov-13 23:00N 36°04' W 005°17'3 6.7
2017-Nov-13 22:30N 36°05' W 005°13'4 7.5
2017-Nov-13 22:00N 36°08' W 005°10'1 0.0
2017-Nov-13 02:00N 36°08' W 005°09'1 1.3
2017-Nov-13 01:18N 36°08' W 005°10'0 1.2
2017-Nov-13 01:00N 36°08' W 005°10'1 1.7
2017-Nov-13 00:30N 36°08' W 005°10'4 3.5
2017-Nov-12 23:25N 36°11' W 005°07'1 1.1
2017-Nov-12 22:55N 36°11' W 005°08'1 1.0
2017-Nov-12 22:05N 36°11' W 005°09'0 1.0
2017-Nov-12 22:00N 36°11' W 005°09'1 0.9
2017-Nov-12 21:23N 36°10' W 005°09'0 0.8
2017-Nov-12 20:58N 36°10' W 005°10'0 0.9
2017-Nov-12 20:30N 36°10' W 005°10'0 0.1
2017-Nov-12 20:00N 36°10' W 005°10'2 3.2
2017-Nov-12 19:31N 36°09' W 005°08'3 6.4
2017-Nov-12 19:00N 36°06' W 005°09'611.7
2017-Nov-12 18:31N 36°03' W 005°15'713.8
2017-Nov-12 18:00N 35°59' W 005°23'18914.5
2017-Nov-12 04:55N 35°29' W 009°13'614.5
2017-Nov-12 04:31N 35°28' W 009°20'3614.3
2017-Nov-12 02:00N 35°22' W 010°03'714.0
2017-Nov-12 01:28N 35°21' W 010°12'1414.1
2017-Nov-12 00:27N 35°19' W 010°30'4913.7
2017-Nov-11 20:54N 35°10' W 011°29'7813.5
2017-Nov-11 15:08N 34°58' W 013°02'213.3
2017-Nov-11 14:58N 34°57' W 013°05'6313.4
2017-Nov-11 10:15N 34°47' W 014°21'1313.0
2017-Nov-11 09:15N 34°45' W 014°36'7012.3
2017-Nov-11 03:34N 34°33' W 015°60'112.0
2017-Nov-11 03:27N 34°33' W 016°01'  
Track history (hours):
 
Tides and Currents Weather Stations Pressure Air Temp Water Temp Dewpoint Dewpoint Depression Visibility Wind Speed Wind Dir Waves Ship Positions

Erikoussa

Last reported at 2017-Nov-18 12:32 UTC. Time now 2017-Nov-24 05:34 UTC.
Position N 35°59' W 005°33'.

Length 229 m; draft 12.3 m.

Type: Tanker. MMSI: 237928000.

Date/timePositionNaut miles runAvg speedWind from/ knotsBaromVisibWave heightAir tempDewpointWater temp
2017-Nov-18 12:32N 35°59' W 005°33'013.2
2017-Nov-18 12:30N 35°59' W 005°32'812.3
2017-Nov-18 11:53N 36°02' W 005°23'411.8
2017-Nov-18 11:30N 36°04' W 005°19'3 5.4
2017-Nov-18 11:00N 36°07' W 005°18'  
2017-Nov-14 12:13N 36°04' W 005°11'315.6
2017-Nov-14 12:00N 36°05' W 005°15'711.5
2017-Nov-14 11:22N 36°07' W 005°23'2 0.3
2017-Nov-14 04:36N 36°09' W 005°23'0 0.1
2017-Nov-14 04:24N 36°09' W 005°23'0 0.0
2017-Nov-14 03:54N 36°09' W 005°23'0 0.0
2017-Nov-14 03:30N 36°09' W 005°23'0 0.0
2017-Nov-14 02:42N 36°09' W 005°23'0 0.1
2017-Nov-14 02:24N 36°09' W 005°23'0 0.1
2017-Nov-14 02:00N 36°09' W 005°23'0 0.0
2017-Nov-14 01:06N 36°09' W 005°23'0 0.2
2017-Nov-14 01:00N 36°09' W 005°23'1 2.6
2017-Nov-14 00:30N 36°07' W 005°23'1 1.7
2017-Nov-14 00:00N 36°06' W 005°22'1 1.8
2017-Nov-13 23:30N 36°06' W 005°22'4 7.8
2017-Nov-13 23:00N 36°04' W 005°17'3 6.7
2017-Nov-13 22:30N 36°05' W 005°13'4 7.5
2017-Nov-13 22:00N 36°08' W 005°10'1 0.0
2017-Nov-13 02:00N 36°08' W 005°09'1 1.3
2017-Nov-13 01:18N 36°08' W 005°10'0 1.2
2017-Nov-13 01:00N 36°08' W 005°10'1 1.7
2017-Nov-13 00:30N 36°08' W 005°10'4 3.5
2017-Nov-12 23:25N 36°11' W 005°07'1 1.1
2017-Nov-12 22:55N 36°11' W 005°08'1 1.0
2017-Nov-12 22:05N 36°11' W 005°09'0 1.0
2017-Nov-12 22:00N 36°11' W 005°09'1 0.9
2017-Nov-12 21:23N 36°10' W 005°09'0 0.8
2017-Nov-12 20:58N 36°10' W 005°10'0 0.9
2017-Nov-12 20:30N 36°10' W 005°10'0 0.1
2017-Nov-12 20:00N 36°10' W 005°10'2 3.2
2017-Nov-12 19:31N 36°09' W 005°08'3 6.4
2017-Nov-12 19:00N 36°06' W 005°09'611.7
2017-Nov-12 18:31N 36°03' W 005°15'713.8
2017-Nov-12 18:00N 35°59' W 005°23'18914.5
2017-Nov-12 04:55N 35°29' W 009°13'614.5
2017-Nov-12 04:31N 35°28' W 009°20'3614.3
2017-Nov-12 02:00N 35°22' W 010°03'714.0
2017-Nov-12 01:28N 35°21' W 010°12'1414.1
2017-Nov-12 00:27N 35°19' W 010°30'4913.7
2017-Nov-11 20:54N 35°10' W 011°29'7813.5
2017-Nov-11 15:08N 34°58' W 013°02'213.3
2017-Nov-11 14:58N 34°57' W 013°05'6313.4
2017-Nov-11 10:15N 34°47' W 014°21'1313.0
2017-Nov-11 09:15N 34°45' W 014°36'7012.3
2017-Nov-11 03:34N 34°33' W 015°60'112.0
2017-Nov-11 03:27N 34°33' W 016°01'  

Dump ship's entire track history